Bienvenidos al Sitio de AASANA BOLIVIA
Aeropuerto: Internaciónal El Alto
HORA UTC 15:00
11°C
Humedad: 28%

Fecha: 20/05/2018


Sin Fenómeno
ESTACIÓN:SLLP
LATITUD|LONGITUD:16-08S|68-10W
HORA UTC:15:00
DESCRIPCIÓN: SLLP 201500Z 26004KT 9999 NSC 11/M07 Q1039 A3070 629.2 HZ S/SW HR28 NOSIG=
Regional La Paz
EstaciónAerodromoSit. GeograficaDescripción
SLAPApolo14-44S-68-24W
SLCNCharaña17-35S-69-25W
SLSBSan Borja14-51S-66-44W SLSB 201500Z 11010KT 9999 NSC 22/13 Q1019 A3010 CI HR59 RWY WET OPR C210=
SLUYUyuni20-27S-62-52W SLUY 201500Z 00000KT 9999 NSC 07/M11 Q1036 A3060 659.9 HR27=
SLOROruro17-57S-67-04W RTD SLOR 201500Z 36005KT 9999 NSC 12/M05 Q1037 A3062 657.3 HR31=
SLRQRurrenabaque14-25S-67-29W SLRQ 201600Z 12012KT 9999 FEW020 SCT200 24/16 Q1016 A3001 HR62=
SLRYReyes14-18S-67-21W SLRY 201500Z 16012KT 9999 NSC 23/13 Q1016 A3003 HR53 RWY WET OPR C210=
SLLPInternaciónal El Alto16-08S-68-10W SLLP 201500Z 26004KT 9999 NSC 11/M07 Q1039 A3070 629.2 HZ S/SW HR28 NOSIG=
Regional Cochabamba
EstaciónAerodromoSit. GeograficaDescripción
SLVMVillamontes21-15S-63-24W SLVM 182000Z 00000KT 9999 SCT013 BKN070 19/18 Q1012 A2989 HR95=
SLBJBermejo22-46S-64-18W SLBJ 072000Z 18004KT 9999 SCT025 FEW025TCU BKN200 31/26 Q1004 A2965 HR71 TCU/N/NE/NW=
SLAGMonteagudo19-49S-63-58W SLAG 182200Z 21006KT 9999 FEW020 BKN070 22/18 Q1014 A2996 887.1 HR76=
SLYAYacuiba21-57S-63-39W SLYA 201600Z 36006KT 9999 NSC 22/13 Q1019 A3011 HR57=
SLHIChimore16-58S-65-09W SLHI 201000Z 00000KT 9999 FEW008 BKN070 17/17 Q1021 A3015 993.7 HR98=
SLPOPotosí19-32S-65-43W SLPO 201400Z 24005KT 9999 NSC 10/M05 Q1038 A3066 HR36=
SLTJTarija21-33S-64-42W SLTJ 201500Z 09004KT 9999 NSC 16/M00 Q1022 A3019 816.9 HR32=
SLALAlcantari19-14S-65-09W SLAL 201500Z 25004KT 9999 FEW013 12/07 Q1030 A3044 HR73=
SLCBCochabamba17-25S-66-10W SLCB 201500Z 29003KT 9999 NSC 17/05 Q1028 A3036 753.9 HR44 FU NOSIG=
Regional Santa Cruz
EstaciónAerodromoSit. GeograficaDescripción
SLASAscención de Guarayos15-55S-63-09W SLAS 201500Z 16012KT 9999 NSC 22/12 Q1022 A3018 HR53 RWY NML=
SLSISan Ignacio de Velasco16-23S-60-57W SLSI 201500Z 16006KT 9999 NSC 19/09 Q1021 A3015 HR51 RWY NML=
SLJVSan Javier16-16S-62-28W SLJV 201500Z 18012KT 9999 NSC 19/09 Q1019 A3009 HR50 RWY NML=
SLETEl Trompillo17-48S-63-10W SLET 201500Z 13008KT 9999 NSC 20/09 Q1021 A30.15 HR49 NOSIG=
SLPSPuerto Suárez18-58S-57-49W SLPS 201500Z 00000KT 9999 NSC 22/12 Q1020 A3013 HR57=
SLCPConcepción16-08S-62-01W SLCP 201500Z 12014KT 9999 NSC 18/10 Q1022 A3018 HR61 RWY NML=
SLRBRoboré18-19S-59-45W SLRB 201500Z 00000KT 9999 NSC 19/12 Q1023 A3021 HR65 RWY NML=
SLCACamiri20-00S-63-31W SLCA 201500Z 00000KT 9999 NSC 16/09 Q1023 A3021 HR63 RWY NML=
SLJESan José de Chiquitos17-49S-60-44W SLJE 201500Z 18012KT 9999 NSC 22/10 Q1023 A3021 HR47 RWY NML=
SLVRInternaciónal Viru Viru17-38S-63-08W SLVR 201600Z 15010KT 9999 NSC 20/10 Q1020 A3013 HR52 NOSIG=
SLTISan Matías16-20S-58-24W SLTI 201500Z 00000KT 9999 SCT070 18/15 Q1021 A3015 HR82 RWY NML =
SLVGValle Grande18-28S-64-05W SLVG 201500Z 00000KT 9999 NSC 18/M01 Q1028 A3036 HR21 RWY NML=
Regional Beni
EstaciónAerodromoSit. GeograficaDescripción
SLCOCobija11-02S-68-47W SLCO 201500Z 13013KT 9999 SCT080 23/15 Q1019 A3011 992.0 HR62 CI=
SLBUBaures13-39S-63-42W SLBU 201500Z 14014KT 9999 NSC 22/13 Q1018 A3008 HR58 CI RWY NML=
SLSMSan Ignacio de Moxos14-57S-65-38W SLSM 201500Z 14014KT 9999 NSC 21/13 Q1019 A3009 HR60 CI RWY OPR C206=
SLJOSan Joaquin13-03S-64-39W SLJO 201500Z 14015G25KT 9999 NSC 22/13 Q1018 A3007 HR56 CI RWY NML=
SLRASan Ramón13-15S-64-36W SLRA 201500Z 13016KT 9999 NSC 22/12 Q1016 A3003 HR54 CI RWY NML=
SLGMGuayaramerín10-53S-65-23W SLGM 201500Z 18010G20KT 9999 BKN020 BKN080 22/16 Q1018 A3007 HR70=
SLSASanta Ana de Yacuma13-45S-65-26W SLSA 201500Z 14017KT 9999 NSC 21/12 Q1019 A3012 HR60 CI=
SLMGSan Magdalena13-15S-64-36W SLMG 201500Z 14012KT 9999 FEW080 BKN200 23/14 Q1018 A3006 HR57 RWY NML=
SLRIRiberalta11-00S-66-04W SLRI 201500Z 17015KT 9999 OVC015 22/17 Q1018 A3008 HR72=
SLTRTrinidad14-49S-64-54W SLTR 201500Z 11013KT 9999 NSC 21/12 Q1019 A3011 1001.0 HR54 CI NOSIG=
SLSRSanta Rosa14-04S-66-47W SLSR 201500Z 13015KT 9999 NSC 22/15 Q1021 A3017 HR64 CI RWY HUM OPR=